sensor_id;sensor_type;location;lat;lon;timestamp;temperature;humidity
15707;DHT22;7953;54.302;10.128;2023-05-23T00:00:40;15.70;99.90
15707;DHT22;7953;54.302;10.128;2023-05-23T00:03:07;15.70;99.90
15707;DHT22;7953;54.302;10.128;2023-05-23T00:05:35;15.70;99.90
15707;DHT22;7953;54.302;10.128;2023-05-23T00:08:03;15.70;99.90
15707;DHT22;7953;54.302;10.128;2023-05-23T00:10:30;15.70;99.90
15707;DHT22;7953;54.302;10.128;2023-05-23T00:12:57;15.60;99.90
15707;DHT22;7953;54.302;10.128;2023-05-23T00:15:24;15.60;99.90
15707;DHT22;7953;54.302;10.128;2023-05-23T00:17:50;15.60;99.90
15707;DHT22;7953;54.302;10.128;2023-05-23T00:20:18;15.60;99.90
15707;DHT22;7953;54.302;10.128;2023-05-23T00:22:45;15.70;99.90
15707;DHT22;7953;54.302;10.128;2023-05-23T00:25:14;15.70;99.90
15707;DHT22;7953;54.302;10.128;2023-05-23T00:27:40;15.60;99.90
15707;DHT22;7953;54.302;10.128;2023-05-23T00:30:08;15.60;99.90
15707;DHT22;7953;54.302;10.128;2023-05-23T00:32:35;15.60;99.90
15707;DHT22;7953;54.302;10.128;2023-05-23T00:35:02;15.60;99.90
15707;DHT22;7953;54.302;10.128;2023-05-23T00:37:29;15.60;99.90
15707;DHT22;7953;54.302;10.128;2023-05-23T00:39:56;15.60;99.90
15707;DHT22;7953;54.302;10.128;2023-05-23T00:42:24;15.60;99.90
15707;DHT22;7953;54.302;10.128;2023-05-23T00:44:51;15.60;99.90
15707;DHT22;7953;54.302;10.128;2023-05-23T00:47:18;15.60;99.90
15707;DHT22;7953;54.302;10.128;2023-05-23T00:49:45;15.60;99.90
15707;DHT22;7953;54.302;10.128;2023-05-23T00:52:14;15.60;99.90
15707;DHT22;7953;54.302;10.128;2023-05-23T00:54:41;15.60;99.90
15707;DHT22;7953;54.302;10.128;2023-05-23T00:57:08;15.50;99.90
15707;DHT22;7953;54.302;10.128;2023-05-23T00:59:37;15.50;99.90
15707;DHT22;7953;54.302;10.128;2023-05-23T01:02:04;15.50;99.90
15707;DHT22;7953;54.302;10.128;2023-05-23T01:04:31;15.50;99.90
15707;DHT22;7953;54.302;10.128;2023-05-23T01:06:58;15.50;99.90
15707;DHT22;7953;54.302;10.128;2023-05-23T01:09:27;15.50;99.90
15707;DHT22;7953;54.302;10.128;2023-05-23T01:12:01;15.50;99.90
15707;DHT22;7953;54.302;10.128;2023-05-23T01:14:34;15.50;99.90
15707;DHT22;7953;54.302;10.128;2023-05-23T01:17:08;15.50;99.90
15707;DHT22;7953;54.302;10.128;2023-05-23T01:19:53;15.50;99.90
15707;DHT22;7953;54.302;10.128;2023-05-23T01:22:40;15.50;99.90
15707;DHT22;7953;54.302;10.128;2023-05-23T01:25:29;15.50;99.90
15707;DHT22;7953;54.302;10.128;2023-05-23T01:28:04;15.40;99.90
15707;DHT22;7953;54.302;10.128;2023-05-23T01:30:38;15.40;99.90
15707;DHT22;7953;54.302;10.128;2023-05-23T01:33:07;15.40;99.90
15707;DHT22;7953;54.302;10.128;2023-05-23T01:35:34;15.40;99.90
15707;DHT22;7953;54.302;10.128;2023-05-23T01:38:02;15.40;99.90
15707;DHT22;7953;54.302;10.128;2023-05-23T01:40:29;15.40;99.90
15707;DHT22;7953;54.302;10.128;2023-05-23T01:42:56;15.30;99.90
15707;DHT22;7953;54.302;10.128;2023-05-23T01:45:25;15.30;99.90
15707;DHT22;7953;54.302;10.128;2023-05-23T01:47:53;15.30;99.90
15707;DHT22;7953;54.302;10.128;2023-05-23T01:50:22;15.30;99.90
15707;DHT22;7953;54.302;10.128;2023-05-23T01:52:50;15.30;99.90
15707;DHT22;7953;54.302;10.128;2023-05-23T01:55:19;15.20;99.90
15707;DHT22;7953;54.302;10.128;2023-05-23T01:57:50;15.20;99.90
15707;DHT22;7953;54.302;10.128;2023-05-23T02:00:17;15.20;99.90
15707;DHT22;7953;54.302;10.128;2023-05-23T02:02:46;15.10;99.90
15707;DHT22;7953;54.302;10.128;2023-05-23T02:05:13;15.10;99.90
15707;DHT22;7953;54.302;10.128;2023-05-23T02:07:39;15.10;99.90
15707;DHT22;7953;54.302;10.128;2023-05-23T02:10:08;15.00;99.90
15707;DHT22;7953;54.302;10.128;2023-05-23T02:12:35;15.00;99.90
15707;DHT22;7953;54.302;10.128;2023-05-23T02:15:02;14.90;99.90
15707;DHT22;7953;54.302;10.128;2023-05-23T02:17:29;14.90;99.90
15707;DHT22;7953;54.302;10.128;2023-05-23T02:19:58;14.90;99.90
15707;DHT22;7953;54.302;10.128;2023-05-23T02:22:25;14.80;99.90
15707;DHT22;7953;54.302;10.128;2023-05-23T02:24:52;14.80;99.90
15707;DHT22;7953;54.302;10.128;2023-05-23T02:27:19;14.70;99.90
15707;DHT22;7953;54.302;10.128;2023-05-23T02:29:45;14.70;99.90
15707;DHT22;7953;54.302;10.128;2023-05-23T02:32:12;14.70;99.90
15707;DHT22;7953;54.302;10.128;2023-05-23T02:34:39;14.60;99.90
15707;DHT22;7953;54.302;10.128;2023-05-23T02:37:08;14.60;99.90
15707;DHT22;7953;54.302;10.128;2023-05-23T02:39:36;14.60;99.90
15707;DHT22;7953;54.302;10.128;2023-05-23T02:42:03;14.60;99.90
15707;DHT22;7953;54.302;10.128;2023-05-23T02:44:30;14.60;99.90
15707;DHT22;7953;54.302;10.128;2023-05-23T02:46:57;14.60;99.90
15707;DHT22;7953;54.302;10.128;2023-05-23T02:49:24;14.60;99.90
15707;DHT22;7953;54.302;10.128;2023-05-23T02:51:50;14.60;99.90
15707;DHT22;7953;54.302;10.128;2023-05-23T02:54:19;14.60;99.90
15707;DHT22;7953;54.302;10.128;2023-05-23T02:56:46;14.60;99.90
15707;DHT22;7953;54.302;10.128;2023-05-23T02:59:13;14.60;99.90
15707;DHT22;7953;54.302;10.128;2023-05-23T03:01:40;14.60;99.90
15707;DHT22;7953;54.302;10.128;2023-05-23T03:04:07;14.60;99.90
15707;DHT22;7953;54.302;10.128;2023-05-23T03:06:33;14.60;99.90
15707;DHT22;7953;54.302;10.128;2023-05-23T03:09:01;14.60;99.90
15707;DHT22;7953;54.302;10.128;2023-05-23T03:11:29;14.60;99.90
15707;DHT22;7953;54.302;10.128;2023-05-23T03:13:56;14.70;99.90
15707;DHT22;7953;54.302;10.128;2023-05-23T03:16:23;14.70;99.90
15707;DHT22;7953;54.302;10.128;2023-05-23T03:18:50;14.70;99.90
15707;DHT22;7953;54.302;10.128;2023-05-23T03:21:17;14.80;99.90
15707;DHT22;7953;54.302;10.128;2023-05-23T03:23:44;14.70;99.90
15707;DHT22;7953;54.302;10.128;2023-05-23T03:26:10;14.80;99.90
15707;DHT22;7953;54.302;10.128;2023-05-23T03:28:39;14.80;99.90
15707;DHT22;7953;54.302;10.128;2023-05-23T03:31:06;14.80;99.90
15707;DHT22;7953;54.302;10.128;2023-05-23T03:33:32;14.80;99.90
15707;DHT22;7953;54.302;10.128;2023-05-23T03:35:59;14.90;99.90
15707;DHT22;7953;54.302;10.128;2023-05-23T03:38:27;14.90;99.90
15707;DHT22;7953;54.302;10.128;2023-05-23T03:40:53;14.90;99.90
15707;DHT22;7953;54.302;10.128;2023-05-23T03:43:20;14.90;99.90
15707;DHT22;7953;54.302;10.128;2023-05-23T03:45:48;14.90;99.90
15707;DHT22;7953;54.302;10.128;2023-05-23T03:48:15;14.90;99.90
15707;DHT22;7953;54.302;10.128;2023-05-23T03:50:42;14.90;99.90
15707;DHT22;7953;54.302;10.128;2023-05-23T03:53:09;15.00;99.90
15707;DHT22;7953;54.302;10.128;2023-05-23T03:55:37;14.90;99.90
15707;DHT22;7953;54.302;10.128;2023-05-23T03:58:04;15.00;99.90
15707;DHT22;7953;54.302;10.128;2023-05-23T04:00:31;15.00;99.90
15707;DHT22;7953;54.302;10.128;2023-05-23T04:02:59;15.00;99.90
15707;DHT22;7953;54.302;10.128;2023-05-23T04:05:26;15.00;99.90
15707;DHT22;7953;54.302;10.128;2023-05-23T04:07:53;15.00;99.90
15707;DHT22;7953;54.302;10.128;2023-05-23T04:10:20;15.00;99.90
15707;DHT22;7953;54.302;10.128;2023-05-23T04:12:47;15.00;99.90
15707;DHT22;7953;54.302;10.128;2023-05-23T04:15:14;15.00;99.90
15707;DHT22;7953;54.302;10.128;2023-05-23T04:17:42;15.00;99.90
15707;DHT22;7953;54.302;10.128;2023-05-23T04:20:11;15.00;99.90
15707;DHT22;7953;54.302;10.128;2023-05-23T04:22:38;15.00;99.90
15707;DHT22;7953;54.302;10.128;2023-05-23T04:25:06;14.90;99.90
15707;DHT22;7953;54.302;10.128;2023-05-23T04:27:34;15.00;99.90
15707;DHT22;7953;54.302;10.128;2023-05-23T04:30:05;14.90;99.90
15707;DHT22;7953;54.302;10.128;2023-05-23T04:32:33;14.90;99.90
15707;DHT22;7953;54.302;10.128;2023-05-23T04:35:00;14.80;99.90
15707;DHT22;7953;54.302;10.128;2023-05-23T04:37:30;14.80;99.90
15707;DHT22;7953;54.302;10.128;2023-05-23T04:39:57;14.80;99.90
15707;DHT22;7953;54.302;10.128;2023-05-23T04:42:25;14.70;99.90
15707;DHT22;7953;54.302;10.128;2023-05-23T04:44:53;14.70;99.90
15707;DHT22;7953;54.302;10.128;2023-05-23T04:47:22;14.70;99.90
15707;DHT22;7953;54.302;10.128;2023-05-23T04:49:52;14.70;99.90
15707;DHT22;7953;54.302;10.128;2023-05-23T04:52:19;14.60;99.90
15707;DHT22;7953;54.302;10.128;2023-05-23T04:54:47;14.70;99.90
15707;DHT22;7953;54.302;10.128;2023-05-23T04:57:14;14.60;99.90
15707;DHT22;7953;54.302;10.128;2023-05-23T04:59:41;14.60;99.90
15707;DHT22;7953;54.302;10.128;2023-05-23T05:02:08;14.60;99.90
15707;DHT22;7953;54.302;10.128;2023-05-23T05:04:35;14.60;99.90
15707;DHT22;7953;54.302;10.128;2023-05-23T05:07:02;14.50;99.90
15707;DHT22;7953;54.302;10.128;2023-05-23T05:09:29;14.50;99.90
15707;DHT22;7953;54.302;10.128;2023-05-23T05:11:57;14.50;99.90
15707;DHT22;7953;54.302;10.128;2023-05-23T05:14:24;14.60;99.90
15707;DHT22;7953;54.302;10.128;2023-05-23T05:16:52;14.60;99.90
15707;DHT22;7953;54.302;10.128;2023-05-23T05:19:19;14.50;99.90
15707;DHT22;7953;54.302;10.128;2023-05-23T05:21:46;14.50;99.90
15707;DHT22;7953;54.302;10.128;2023-05-23T05:24:13;14.40;99.90
15707;DHT22;7953;54.302;10.128;2023-05-23T05:26:40;14.40;99.90
15707;DHT22;7953;54.302;10.128;2023-05-23T05:29:09;14.40;99.90
15707;DHT22;7953;54.302;10.128;2023-05-23T05:31:35;14.50;99.90
15707;DHT22;7953;54.302;10.128;2023-05-23T05:34:03;14.50;99.90
15707;DHT22;7953;54.302;10.128;2023-05-23T05:36:30;14.50;99.90
15707;DHT22;7953;54.302;10.128;2023-05-23T05:38:57;14.60;99.90
15707;DHT22;7953;54.302;10.128;2023-05-23T05:41:23;14.60;99.90
15707;DHT22;7953;54.302;10.128;2023-05-23T05:43:51;14.60;99.90
15707;DHT22;7953;54.302;10.128;2023-05-23T05:46:19;14.60;99.90
15707;DHT22;7953;54.302;10.128;2023-05-23T05:48:46;14.70;99.90
15707;DHT22;7953;54.302;10.128;2023-05-23T05:51:13;14.70;99.90
15707;DHT22;7953;54.302;10.128;2023-05-23T05:53:40;14.70;99.90
15707;DHT22;7953;54.302;10.128;2023-05-23T05:56:07;14.70;99.90
15707;DHT22;7953;54.302;10.128;2023-05-23T05:58:34;14.80;99.90
15707;DHT22;7953;54.302;10.128;2023-05-23T06:01:01;14.70;99.90
15707;DHT22;7953;54.302;10.128;2023-05-23T06:03:31;14.80;99.90
15707;DHT22;7953;54.302;10.128;2023-05-23T06:05:58;14.70;99.90
15707;DHT22;7953;54.302;10.128;2023-05-23T06:08:25;14.70;99.90
15707;DHT22;7953;54.302;10.128;2023-05-23T06:10:52;14.70;99.90
15707;DHT22;7953;54.302;10.128;2023-05-23T06:13:21;14.70;99.90
15707;DHT22;7953;54.302;10.128;2023-05-23T06:15:48;14.70;99.90
15707;DHT22;7953;54.302;10.128;2023-05-23T06:18:14;14.60;99.90
15707;DHT22;7953;54.302;10.128;2023-05-23T06:20:43;14.50;99.90
15707;DHT22;7953;54.302;10.128;2023-05-23T06:23:09;14.50;99.90
15707;DHT22;7953;54.302;10.128;2023-05-23T06:25:36;14.50;99.90
15707;DHT22;7953;54.302;10.128;2023-05-23T06:28:03;14.40;99.90
15707;DHT22;7953;54.302;10.128;2023-05-23T06:30:30;14.30;99.90
15707;DHT22;7953;54.302;10.128;2023-05-23T06:32:59;14.30;99.90
15707;DHT22;7953;54.302;10.128;2023-05-23T06:35:26;14.30;99.90
15707;DHT22;7953;54.302;10.128;2023-05-23T06:37:54;14.30;99.90
15707;DHT22;7953;54.302;10.128;2023-05-23T06:40:21;14.30;99.90
15707;DHT22;7953;54.302;10.128;2023-05-23T06:42:48;14.30;99.90
15707;DHT22;7953;54.302;10.128;2023-05-23T06:45:15;14.30;99.90
15707;DHT22;7953;54.302;10.128;2023-05-23T06:47:41;14.30;99.90
15707;DHT22;7953;54.302;10.128;2023-05-23T06:50:10;14.30;99.90
15707;DHT22;7953;54.302;10.128;2023-05-23T06:52:37;14.30;99.90
15707;DHT22;7953;54.302;10.128;2023-05-23T06:55:06;14.30;99.90
15707;DHT22;7953;54.302;10.128;2023-05-23T06:57:33;14.30;99.90
15707;DHT22;7953;54.302;10.128;2023-05-23T07:00:00;14.40;99.90
15707;DHT22;7953;54.302;10.128;2023-05-23T07:02:26;14.40;99.90
15707;DHT22;7953;54.302;10.128;2023-05-23T07:04:53;14.40;99.90
15707;DHT22;7953;54.302;10.128;2023-05-23T07:07:20;14.40;99.90
15707;DHT22;7953;54.302;10.128;2023-05-23T07:09:47;14.40;99.90
15707;DHT22;7953;54.302;10.128;2023-05-23T07:12:15;14.40;99.90
15707;DHT22;7953;54.302;10.128;2023-05-23T07:14:42;14.50;99.90
15707;DHT22;7953;54.302;10.128;2023-05-23T07:17:09;14.40;99.90
15707;DHT22;7953;54.302;10.128;2023-05-23T07:19:36;14.50;99.90
15707;DHT22;7953;54.302;10.128;2023-05-23T07:22:04;14.50;99.90
15707;DHT22;7953;54.302;10.128;2023-05-23T07:24:31;14.50;99.90
15707;DHT22;7953;54.302;10.128;2023-05-23T07:26:57;14.50;99.90
15707;DHT22;7953;54.302;10.128;2023-05-23T07:29:26;14.60;99.90
15707;DHT22;7953;54.302;10.128;2023-05-23T07:31:52;14.50;99.90
15707;DHT22;7953;54.302;10.128;2023-05-23T07:34:19;14.40;99.90
15707;DHT22;7953;54.302;10.128;2023-05-23T07:36:46;14.40;99.90
15707;DHT22;7953;54.302;10.128;2023-05-23T07:39:14;14.40;99.90
15707;DHT22;7953;54.302;10.128;2023-05-23T07:41:46;14.40;99.90
15707;DHT22;7953;54.302;10.128;2023-05-23T07:44:13;14.40;99.90
15707;DHT22;7953;54.302;10.128;2023-05-23T07:46:42;14.40;99.90
15707;DHT22;7953;54.302;10.128;2023-05-23T07:49:09;14.40;99.90
15707;DHT22;7953;54.302;10.128;2023-05-23T07:51:35;14.40;99.90
15707;DHT22;7953;54.302;10.128;2023-05-23T07:54:02;14.30;99.90
15707;DHT22;7953;54.302;10.128;2023-05-23T07:56:29;14.40;99.90
15707;DHT22;7953;54.302;10.128;2023-05-23T07:58:56;14.30;99.90
15707;DHT22;7953;54.302;10.128;2023-05-23T08:01:23;14.20;99.90
15707;DHT22;7953;54.302;10.128;2023-05-23T08:03:51;14.20;99.90
15707;DHT22;7953;54.302;10.128;2023-05-23T08:06:18;14.20;99.90
15707;DHT22;7953;54.302;10.128;2023-05-23T08:08:45;14.20;99.90
15707;DHT22;7953;54.302;10.128;2023-05-23T08:11:12;14.20;99.90
15707;DHT22;7953;54.302;10.128;2023-05-23T08:13:40;14.20;99.90
15707;DHT22;7953;54.302;10.128;2023-05-23T08:16:07;14.10;99.90
15707;DHT22;7953;54.302;10.128;2023-05-23T08:18:33;14.10;99.90
15707;DHT22;7953;54.302;10.128;2023-05-23T08:21:02;14.10;99.90
15707;DHT22;7953;54.302;10.128;2023-05-23T08:23:29;14.20;99.90
15707;DHT22;7953;54.302;10.128;2023-05-23T08:25:56;14.20;99.90
15707;DHT22;7953;54.302;10.128;2023-05-23T08:28:23;14.20;99.90
15707;DHT22;7953;54.302;10.128;2023-05-23T08:30:49;14.10;99.90
15707;DHT22;7953;54.302;10.128;2023-05-23T08:33:18;14.10;99.90
15707;DHT22;7953;54.302;10.128;2023-05-23T08:35:45;14.10;99.90
15707;DHT22;7953;54.302;10.128;2023-05-23T08:38:13;14.10;99.90
15707;DHT22;7953;54.302;10.128;2023-05-23T08:40:42;14.20;99.90
15707;DHT22;7953;54.302;10.128;2023-05-23T08:43:14;14.10;99.90
15707;DHT22;7953;54.302;10.128;2023-05-23T08:45:41;14.10;99.90
15707;DHT22;7953;54.302;10.128;2023-05-23T08:48:12;14.00;99.90
15707;DHT22;7953;54.302;10.128;2023-05-23T08:50:42;14.00;99.90
15707;DHT22;7953;54.302;10.128;2023-05-23T08:53:16;13.90;99.90
15707;DHT22;7953;54.302;10.128;2023-05-23T08:55:46;13.80;99.90
15707;DHT22;7953;54.302;10.128;2023-05-23T08:58:13;13.80;99.90
15707;DHT22;7953;54.302;10.128;2023-05-23T09:00:41;13.70;99.90
15707;DHT22;7953;54.302;10.128;2023-05-23T09:03:09;13.60;99.90
15707;DHT22;7953;54.302;10.128;2023-05-23T09:05:37;13.50;99.90
15707;DHT22;7953;54.302;10.128;2023-05-23T09:08:04;13.40;99.90
15707;DHT22;7953;54.302;10.128;2023-05-23T09:10:33;13.40;99.90
15707;DHT22;7953;54.302;10.128;2023-05-23T09:13:00;13.30;99.90
15707;DHT22;7953;54.302;10.128;2023-05-23T09:15:28;13.40;99.90
15707;DHT22;7953;54.302;10.128;2023-05-23T09:17:59;13.30;99.90
15707;DHT22;7953;54.302;10.128;2023-05-23T09:20:28;13.20;99.90
15707;DHT22;7953;54.302;10.128;2023-05-23T09:22:55;13.00;99.90
15707;DHT22;7953;54.302;10.128;2023-05-23T09:25:22;13.00;99.90
15707;DHT22;7953;54.302;10.128;2023-05-23T09:27:51;13.00;99.90
15707;DHT22;7953;54.302;10.128;2023-05-23T09:30:20;13.00;99.90
15707;DHT22;7953;54.302;10.128;2023-05-23T09:32:59;13.00;99.90
15707;DHT22;7953;54.302;10.128;2023-05-23T09:35:27;13.00;99.90
15707;DHT22;7953;54.302;10.128;2023-05-23T09:37:56;13.10;99.90
15707;DHT22;7953;54.302;10.128;2023-05-23T09:40:29;13.20;99.90
15707;DHT22;7953;54.302;10.128;2023-05-23T09:43:01;13.20;99.90
15707;DHT22;7953;54.302;10.128;2023-05-23T09:45:29;13.20;99.90
15707;DHT22;7953;54.302;10.128;2023-05-23T09:47:56;13.20;99.90
15707;DHT22;7953;54.302;10.128;2023-05-23T09:50:30;13.30;99.90
15707;DHT22;7953;54.302;10.128;2023-05-23T09:52:58;13.30;99.90
15707;DHT22;7953;54.302;10.128;2023-05-23T09:55:25;13.30;99.90
15707;DHT22;7953;54.302;10.128;2023-05-23T09:57:53;13.30;99.90
15707;DHT22;7953;54.302;10.128;2023-05-23T10:00:23;13.40;99.90
15707;DHT22;7953;54.302;10.128;2023-05-23T10:02:57;13.40;99.90
15707;DHT22;7953;54.302;10.128;2023-05-23T10:05:31;13.50;99.90
15707;DHT22;7953;54.302;10.128;2023-05-23T10:08:00;13.50;99.90
15707;DHT22;7953;54.302;10.128;2023-05-23T10:10:30;13.50;99.90
15707;DHT22;7953;54.302;10.128;2023-05-23T10:12:59;13.50;99.90
15707;DHT22;7953;54.302;10.128;2023-05-23T10:15:35;13.60;99.90
15707;DHT22;7953;54.302;10.128;2023-05-23T10:18:08;13.40;99.90
15707;DHT22;7953;54.302;10.128;2023-05-23T10:20:39;13.30;99.90
15707;DHT22;7953;54.302;10.128;2023-05-23T10:23:09;13.30;99.90
15707;DHT22;7953;54.302;10.128;2023-05-23T10:25:37;13.20;99.90
15707;DHT22;7953;54.302;10.128;2023-05-23T10:28:06;13.20;99.90
15707;DHT22;7953;54.302;10.128;2023-05-23T10:30:34;13.30;99.90
15707;DHT22;7953;54.302;10.128;2023-05-23T10:33:02;13.30;99.90
15707;DHT22;7953;54.302;10.128;2023-05-23T10:35:37;13.40;99.90
15707;DHT22;7953;54.302;10.128;2023-05-23T10:38:13;13.50;99.90
15707;DHT22;7953;54.302;10.128;2023-05-23T10:40:51;13.70;99.90
15707;DHT22;7953;54.302;10.128;2023-05-23T10:43:24;13.80;99.90
15707;DHT22;7953;54.302;10.128;2023-05-23T10:45:53;14.00;99.90
15707;DHT22;7953;54.302;10.128;2023-05-23T10:48:21;14.20;99.90
15707;DHT22;7953;54.302;10.128;2023-05-23T10:51:02;14.30;99.90
15707;DHT22;7953;54.302;10.128;2023-05-23T10:53:30;14.20;99.90
15707;DHT22;7953;54.302;10.128;2023-05-23T10:55:57;14.20;99.90
15707;DHT22;7953;54.302;10.128;2023-05-23T10:58:24;14.20;99.90
15707;DHT22;7953;54.302;10.128;2023-05-23T11:00:54;14.40;99.90
15707;DHT22;7953;54.302;10.128;2023-05-23T11:03:48;14.40;99.90
15707;DHT22;7953;54.302;10.128;2023-05-23T11:06:28;14.30;99.90
15707;DHT22;7953;54.302;10.128;2023-05-23T11:09:01;14.40;99.90
15707;DHT22;7953;54.302;10.128;2023-05-23T11:11:59;14.40;99.90
15707;DHT22;7953;54.302;10.128;2023-05-23T11:17:22;14.50;99.90
15707;DHT22;7953;54.302;10.128;2023-05-23T11:19:55;14.60;99.90
15707;DHT22;7953;54.302;10.128;2023-05-23T11:22:26;14.80;99.90
15707;DHT22;7953;54.302;10.128;2023-05-23T11:24:55;15.00;99.90
15707;DHT22;7953;54.302;10.128;2023-05-23T11:27:26;15.10;99.90
15707;DHT22;7953;54.302;10.128;2023-05-23T11:29:57;15.40;99.90
15707;DHT22;7953;54.302;10.128;2023-05-23T11:32:28;15.60;99.90
15707;DHT22;7953;54.302;10.128;2023-05-23T11:34:59;15.60;99.90
15707;DHT22;7953;54.302;10.128;2023-05-23T11:37:26;15.80;99.90
15707;DHT22;7953;54.302;10.128;2023-05-23T11:39:53;15.80;99.90
15707;DHT22;7953;54.302;10.128;2023-05-23T11:42:21;15.90;99.90
15707;DHT22;7953;54.302;10.128;2023-05-23T11:44:48;15.90;99.90
15707;DHT22;7953;54.302;10.128;2023-05-23T11:47:15;16.00;99.90
15707;DHT22;7953;54.302;10.128;2023-05-23T11:49:45;16.20;99.90
15707;DHT22;7953;54.302;10.128;2023-05-23T11:52:12;16.40;99.90
15707;DHT22;7953;54.302;10.128;2023-05-23T11:54:40;16.40;99.90
15707;DHT22;7953;54.302;10.128;2023-05-23T11:57:07;16.30;99.90
15707;DHT22;7953;54.302;10.128;2023-05-23T11:59:34;16.40;99.90
15707;DHT22;7953;54.302;10.128;2023-05-23T12:02:01;16.40;99.90
15707;DHT22;7953;54.302;10.128;2023-05-23T12:04:28;16.40;99.90
15707;DHT22;7953;54.302;10.128;2023-05-23T12:06:57;16.40;99.90
15707;DHT22;7953;54.302;10.128;2023-05-23T12:09:24;16.60;99.90
15707;DHT22;7953;54.302;10.128;2023-05-23T12:11:51;16.50;99.90
15707;DHT22;7953;54.302;10.128;2023-05-23T12:14:18;16.60;99.90
15707;DHT22;7953;54.302;10.128;2023-05-23T12:16:45;16.60;99.90
15707;DHT22;7953;54.302;10.128;2023-05-23T12:19:13;16.60;99.90
15707;DHT22;7953;54.302;10.128;2023-05-23T12:21:41;16.60;99.90
15707;DHT22;7953;54.302;10.128;2023-05-23T12:24:14;16.60;99.90
15707;DHT22;7953;54.302;10.128;2023-05-23T12:26:48;16.40;99.90
15707;DHT22;7953;54.302;10.128;2023-05-23T12:29:18;16.40;99.90
15707;DHT22;7953;54.302;10.128;2023-05-23T12:31:48;16.50;99.90
15707;DHT22;7953;54.302;10.128;2023-05-23T12:34:14;16.50;99.90
15707;DHT22;7953;54.302;10.128;2023-05-23T12:36:41;16.30;99.90
15707;DHT22;7953;54.302;10.128;2023-05-23T12:39:10;16.40;99.90
15707;DHT22;7953;54.302;10.128;2023-05-23T12:41:40;16.50;99.90
15707;DHT22;7953;54.302;10.128;2023-05-23T12:44:08;16.70;99.90
15707;DHT22;7953;54.302;10.128;2023-05-23T12:46:35;16.70;99.90
15707;DHT22;7953;54.302;10.128;2023-05-23T12:49:02;16.60;99.90
15707;DHT22;7953;54.302;10.128;2023-05-23T12:51:29;16.70;99.90
15707;DHT22;7953;54.302;10.128;2023-05-23T12:53:56;17.00;99.90
15707;DHT22;7953;54.302;10.128;2023-05-23T12:56:23;17.10;99.90
15707;DHT22;7953;54.302;10.128;2023-05-23T12:58:51;17.10;99.90
15707;DHT22;7953;54.302;10.128;2023-05-23T13:01:19;16.90;99.90
15707;DHT22;7953;54.302;10.128;2023-05-23T13:03:46;17.00;99.90
15707;DHT22;7953;54.302;10.128;2023-05-23T13:06:13;17.00;99.90
15707;DHT22;7953;54.302;10.128;2023-05-23T13:08:40;17.10;99.90
15707;DHT22;7953;54.302;10.128;2023-05-23T13:11:07;17.30;99.90
15707;DHT22;7953;54.302;10.128;2023-05-23T13:13:34;17.30;99.90
15707;DHT22;7953;54.302;10.128;2023-05-23T13:16:03;17.20;99.90
15707;DHT22;7953;54.302;10.128;2023-05-23T13:18:29;17.20;99.90
15707;DHT22;7953;54.302;10.128;2023-05-23T13:20:56;17.30;99.90
15707;DHT22;7953;54.302;10.128;2023-05-23T13:23:23;17.30;99.90
15707;DHT22;7953;54.302;10.128;2023-05-23T13:25:51;17.20;99.90
15707;DHT22;7953;54.302;10.128;2023-05-23T13:28:18;17.10;99.90
15707;DHT22;7953;54.302;10.128;2023-05-23T13:30:45;16.90;99.90
15707;DHT22;7953;54.302;10.128;2023-05-23T13:33:13;16.90;99.90
15707;DHT22;7953;54.302;10.128;2023-05-23T13:35:40;16.90;99.90
15707;DHT22;7953;54.302;10.128;2023-05-23T13:38:07;16.90;99.90
15707;DHT22;7953;54.302;10.128;2023-05-23T13:40:34;16.90;99.90
15707;DHT22;7953;54.302;10.128;2023-05-23T13:43:01;16.90;99.90
15707;DHT22;7953;54.302;10.128;2023-05-23T13:45:28;16.90;99.90
15707;DHT22;7953;54.302;10.128;2023-05-23T13:47:55;17.00;99.90
15707;DHT22;7953;54.302;10.128;2023-05-23T13:50:23;17.00;99.90
15707;DHT22;7953;54.302;10.128;2023-05-23T13:52:50;16.90;99.90
15707;DHT22;7953;54.302;10.128;2023-05-23T13:55:17;16.80;99.90
15707;DHT22;7953;54.302;10.128;2023-05-23T13:57:44;16.70;99.90
15707;DHT22;7953;54.302;10.128;2023-05-23T14:00:12;16.50;99.90
15707;DHT22;7953;54.302;10.128;2023-05-23T14:02:39;16.40;99.90
15707;DHT22;7953;54.302;10.128;2023-05-23T14:05:07;16.30;99.90
15707;DHT22;7953;54.302;10.128;2023-05-23T14:07:35;16.20;99.90
15707;DHT22;7953;54.302;10.128;2023-05-23T14:10:03;16.40;99.90
15707;DHT22;7953;54.302;10.128;2023-05-23T14:12:31;16.50;99.90
15707;DHT22;7953;54.302;10.128;2023-05-23T14:14:58;16.60;99.90
15707;DHT22;7953;54.302;10.128;2023-05-23T14:17:25;16.50;99.90
15707;DHT22;7953;54.302;10.128;2023-05-23T14:19:52;16.50;99.90
15707;DHT22;7953;54.302;10.128;2023-05-23T14:22:19;16.30;99.90
15707;DHT22;7953;54.302;10.128;2023-05-23T14:24:47;16.40;99.90
15707;DHT22;7953;54.302;10.128;2023-05-23T14:27:14;16.30;99.90
15707;DHT22;7953;54.302;10.128;2023-05-23T14:29:41;16.60;99.90
15707;DHT22;7953;54.302;10.128;2023-05-23T14:32:10;16.70;99.90
15707;DHT22;7953;54.302;10.128;2023-05-23T14:34:37;16.70;99.90
15707;DHT22;7953;54.302;10.128;2023-05-23T14:37:04;16.80;99.90
15707;DHT22;7953;54.302;10.128;2023-05-23T14:39:31;16.80;99.90
15707;DHT22;7953;54.302;10.128;2023-05-23T14:41:59;16.90;99.90
15707;DHT22;7953;54.302;10.128;2023-05-23T14:44:26;16.80;99.90
15707;DHT22;7953;54.302;10.128;2023-05-23T14:46:53;17.00;99.90
15707;DHT22;7953;54.302;10.128;2023-05-23T14:49:20;16.90;99.90
15707;DHT22;7953;54.302;10.128;2023-05-23T14:51:47;16.90;99.90
15707;DHT22;7953;54.302;10.128;2023-05-23T14:54:14;17.20;99.90
15707;DHT22;7953;54.302;10.128;2023-05-23T14:56:41;17.10;99.90
15707;DHT22;7953;54.302;10.128;2023-05-23T14:59:09;17.10;99.90
15707;DHT22;7953;54.302;10.128;2023-05-23T15:01:36;17.10;99.90
15707;DHT22;7953;54.302;10.128;2023-05-23T15:04:03;17.00;99.90
15707;DHT22;7953;54.302;10.128;2023-05-23T15:06:33;17.00;99.90
15707;DHT22;7953;54.302;10.128;2023-05-23T15:09:00;17.00;99.90
15707;DHT22;7953;54.302;10.128;2023-05-23T15:11:29;16.80;99.90
15707;DHT22;7953;54.302;10.128;2023-05-23T15:13:56;16.80;99.90
15707;DHT22;7953;54.302;10.128;2023-05-23T15:16:25;16.60;99.90
15707;DHT22;7953;54.302;10.128;2023-05-23T15:18:56;16.50;99.90
15707;DHT22;7953;54.302;10.128;2023-05-23T15:21:24;16.40;99.90
15707;DHT22;7953;54.302;10.128;2023-05-23T15:23:50;16.50;99.90
15707;DHT22;7953;54.302;10.128;2023-05-23T15:26:17;16.50;99.90
15707;DHT22;7953;54.302;10.128;2023-05-23T15:28:44;16.30;99.90
15707;DHT22;7953;54.302;10.128;2023-05-23T15:31:12;16.30;99.90
15707;DHT22;7953;54.302;10.128;2023-05-23T15:33:40;16.10;99.90
15707;DHT22;7953;54.302;10.128;2023-05-23T15:36:07;15.90;99.90
15707;DHT22;7953;54.302;10.128;2023-05-23T15:38:34;15.70;99.90